Latest Coastal Weather Observations for Lord Howe Island

IDN60701

Issued at 1:11 am EST Friday 19 July 2019 (issued every 10 minutes, with the page automatically refreshed every 10 minutes)

About coastal observations | Map of coastal stations | Coastal observations for NSW | Marine services | Other Formats
Station Details ID: 200839 Name: LORD HOWE ISLAND AERO Lat: -31.54 Lon: 159.08 Height: 5.0 m
Data from the previous 72 hours. | See also: Recent months at Lord Howe Island
Date/Time
EST
Wind Sea
Height
m
Swell Vis
km
Cloud Weather Temp
°C
Press
hPa
Rain since
9am
mm
Dir  Spd
kts
Gust
kts
Height
m
Period
s
Dir
19/01:00am SW 16 26 - - - - 10 Partly cloudy - 17.2 1013.2 7.8
19/12:48am SW 15 25 - - - - 10 Partly cloudy - 17.1 1013.3 7.8
19/12:30am SW 15 24 - - - - 10 - - 16.8 1013.4 7.8
19/12:00am SW 17 27 - - - - 10 Partly cloudy - 16.7 1013.5 7.8
 
Date/Time
EST
Wind Sea
Height
m
Swell Vis
km
Cloud Weather Temp
°C
Press
hPa
Rain since
9am
mm
Dir  Spd
kts
Gust
kts
Height
m
Period
s
Dir
18/11:30pm SW 17 28 - - - - 10 Mostly clear - 17.2 1013.3 7.8
18/11:28pm SW 17 28 - - - - 10 Partly cloudy - 17.4 1013.2 7.8
18/11:00pm SW 15 22 - - - - 10 Partly cloudy - 17.0 1013.3 7.8
18/10:30pm SW 13 19 - - - - 10 Partly cloudy - 16.8 1013.3 7.8
18/10:00pm SW 15 22 - - - - 10 Partly cloudy - 17.1 1013.0 7.8
18/09:30pm SW 15 22 - - - - 10 Partly cloudy - 17.1 1012.8 7.8
18/09:00pm SW 15 22 - - - - 10 Partly cloudy - 16.9 1012.8 7.8
18/08:30pm SW 15 23 - - - - 10 Mostly clear - 16.7 1012.7 7.8
18/08:00pm SW 16 25 - - - - 10 - - 16.7 1012.5 7.8
18/07:30pm SW 16 25 - - - - 10 Partly cloudy - 16.5 1012.1 7.8
18/07:00pm SW 16 25 - - - - 10 Partly cloudy - 16.6 1012.1 7.8
18/06:56pm SW 15 25 - - - - 10 Partly cloudy - 16.3 1012.1 7.8
18/06:30pm SW 15 24 - - - - 10 Partly cloudy - 16.0 1011.8 7.8
18/06:01pm SW 13 23 - - - - 10 Partly cloudy - 15.3 1011.4 7.8
18/06:00pm SW 13 22 - - - - 10 Partly cloudy - 15.4 1011.4 7.8
18/05:39pm SW 18 31 - - - - 5 Partly cloudy - 15.1 1011.2 7.4
18/05:31pm SW 17 28 - - - - 10 Partly cloudy - 17.3 1010.5 7.0
18/05:30pm SW 16 23 - - - - 10 Cloudy - 17.6 1010.4 7.0
18/05:00pm SW 13 23 - - - - 10 Partly cloudy - 17.3 1010.2 7.0
18/04:30pm WSW 18 29 - - - - 10 Partly cloudy - 18.1 1009.6 7.0
18/04:14pm WSW 19 30 - - - - 10 Partly cloudy - 18.0 1009.5 7.0
18/04:00pm WSW 20 25 - - - - 10 Partly cloudy - 18.0 1009.5 7.0
18/03:30pm WSW 19 25 - - - - 10 Partly cloudy - 17.8 1009.3 7.0
18/03:04pm WSW 18 30 - - - - 10 Partly cloudy - 18.2 1009.1 6.8
18/03:00pm WSW 18 27 - - - - 10 Partly cloudy - 18.3 1009.1 6.8
18/02:34pm WSW 17 27 - - - - 10 Mostly cloudy - 18.0 1009.0 6.8
18/02:30pm WSW 16 24 - - - - 10 Mostly clear - 17.9 1008.9 6.8
18/02:00pm SW 17 28 - - - - 10 Mostly cloudy - 18.1 1008.7 6.8
18/01:57pm WSW 18 28 - - - - 10 Mostly cloudy - 17.9 1008.7 6.8
18/01:30pm WSW 19 27 - - - - 10 Mostly cloudy - 18.3 1008.6 6.8
18/01:00pm WSW 19 26 - - - - 10 Mostly cloudy - 18.4 1008.6 6.8
18/12:33pm WSW 18 28 - - - - 10 Partly cloudy - 18.3 1008.9 6.8
18/12:30pm WSW 19 28 - - - - 10 Partly cloudy - 18.6 1008.9 6.8
18/12:27pm WSW 17 27 - - - - 10 Partly cloudy - 18.4 1008.9 6.8
18/12:00pm WSW 20 26 - - - - 10 Mostly clear - 18.4 1009.0 6.8
18/11:30am WSW 18 26 - - - - 10 Cloudy - 18.4 1009.5 6.8
18/11:05am SW 15 25 - - - - 10 Mostly clear - 17.9 1009.7 6.8
18/11:00am SW 15 24 - - - - 10 Mostly clear - 18.0 1009.8 6.8
18/10:30am W 17 20 - - - - 10 Mostly clear - 17.4 1010.3 6.8
18/10:00am W 16 24 - - - - 10 Mostly clear Showers 15.1 1010.6 6.8
18/09:52am W 17 24 - - - - 10 Mostly clear Showers 15.6 1011.2 6.8
18/09:30am W 15 20 - - - - 7 Mostly clear Showers 15.1 1011.5 6.4
18/09:11am W 20 27 - - - - 5 Mostly clear Showers 14.0 1011.4 6.2
18/09:00am W 23 29 - - - - 2 Mostly clear Showers 14.7 1011.7 3.6
18/08:48am WSW 25 34 - - - - 2 Partly cloudy Showers 14.8 1011.6 2.2
18/08:30am WSW 21 33 - - - - 5 Cloudy - 15.9 1011.1 1.4
18/08:27am WSW 21 33 - - - - 10 Partly cloudy - 15.9 1010.9 1.4
18/08:23am WSW 19 25 - - - - 10 Partly cloudy - 16.6 1010.7 1.4
18/08:20am W 30 39 - - - - 8 Partly cloudy Thunder 17.1 1010.4 1.4
18/08:19am WNW 19 39 - - - - 10 Partly cloudy - 18.3 1010.5 1.4
18/08:12am WNW 15 23 - - - - 10 Partly cloudy - 18.7 1010.3 1.2
18/08:00am WNW 9 13 - - - - 8 Mostly cloudy Thunder 16.7 1010.2 1.2
18/07:47am W 13 19 - - - - 5 Mostly cloudy Showers 19.0 1010.1 0.2
18/07:30am W 11 13 - - - - 10 Partly cloudy - 18.3 1009.9 0.2
18/07:00am WNW 11 16 - - - - 10 Partly cloudy - 17.8 1010.2 0.2
18/06:30am WNW 10 15 - - - - 10 Partly cloudy - 17.6 1010.2 0.2
18/06:00am WNW 10 14 - - - - 10 Partly cloudy - 17.2 1010.3 0.2
18/05:30am W 11 16 - - - - 10 Cloudy - 17.9 1010.4 0.2
18/05:00am W 18 23 - - - - 10 - - 18.7 1010.3 0.2
18/04:30am W 19 24 - - - - 10 Partly cloudy - 18.6 1010.3 0.2
18/04:00am W 19 25 - - - - 10 Partly cloudy - 18.5 1010.5 0.2
18/03:30am W 19 24 - - - - 10 Partly cloudy - 18.4 1011.0 0.2
18/03:00am W 14 21 - - - - 10 Partly cloudy - 18.2 1011.1 0.2
18/02:30am WNW 11 15 - - - - 10 Cloudy - 18.1 1011.6 0.2
18/02:00am WNW 9 13 - - - - 10 Partly cloudy - 17.9 1011.9 0.2
18/01:30am WNW 11 17 - - - - 10 Partly cloudy - 17.8 1012.3 0.2
18/01:00am W 13 17 - - - - 10 Partly cloudy - 17.4 1012.6 0.2
18/12:30am W 13 17 - - - - 10 Partly cloudy - 17.6 1012.9 0.2
18/12:00am W 13 17 - - - - 10 Partly cloudy - 17.8 1013.2 0.2
 
Date/Time
EST
Wind Sea
Height
m
Swell Vis
km
Cloud Weather Temp
°C
Press
hPa
Rain since
9am
mm
Dir  Spd
kts
Gust
kts
Height
m
Period
s
Dir
17/11:30pm W 13 16 - - - - 10 Mostly clear - 17.6 1013.5 0.2
17/11:00pm W 13 17 - - - - 10 Partly cloudy - 17.7 1013.9 0.2
17/10:30pm W 14 17 - - - - 10 Partly cloudy - 17.7 1014.2 0.2
17/10:00pm W 14 17 - - - - 10 Partly cloudy - 17.4 1014.4 0.2
17/09:30pm W 14 17 - - - - 10 Cloudy - 17.6 1014.5 0.2
17/09:00pm W 11 13 - - - - 10 Partly cloudy - 17.5 1014.5 0.2
17/08:30pm W 9 13 - - - - 10 Cloudy - 17.5 1014.6 0.2
17/08:00pm WNW 7 11 - - - - 10 Partly cloudy - 17.3 1014.8 0.2
17/07:30pm WNW 11 14 - - - - 10 Partly cloudy - 16.9 1014.7 0.2
17/07:00pm WSW 9 12 - - - - 10 Partly cloudy - 17.9 1014.7 0.2
17/06:30pm WSW 8 11 - - - - 10 Partly cloudy - 17.8 1014.5 0.2
17/06:00pm W 6 13 - - - - 10 Partly cloudy - 17.4 1014.5 0.2
17/05:30pm SW 3 5 - - - - 10 Mostly cloudy - 15.1 1014.3 0.2
17/05:00pm WSW 11 17 - - - - 7 Partly cloudy - 16.4 1014.2 0.2
17/04:30pm WSW 8 13 - - - - 10 Partly cloudy - 17.9 1013.8 0.2
17/04:00pm WSW 10 16 - - - - 10 Partly cloudy - 18.0 1013.9 0.2
17/03:30pm SW 10 16 - - - - 10 Partly cloudy - 18.5 1013.9 0.2
17/03:00pm WSW 12 19 - - - - 10 Partly cloudy - 18.5 1013.7 0.2
17/02:30pm SW 10 14 - - - - 10 Mostly clear - 18.6 1013.6 0.2
17/02:00pm SW 13 20 - - - - 10 - - 18.7 1013.6 0.2
17/01:30pm WSW 15 21 - - - - 10 Partly cloudy - 18.8 1013.7 0.2
17/01:00pm WSW 15 21 - - - - 10 Partly cloudy - 18.8 1013.8 0.0
17/12:30pm WSW 13 19 - - - - 10 Partly cloudy - 18.9 1014.1 0.0
17/12:00pm WSW 13 22 - - - - 10 Mostly clear - 18.5 1014.4 0.0
17/11:30am WSW 16 21 - - - - 10 Partly cloudy - 18.9 1014.8 0.0
17/11:00am WSW 14 19 - - - - 10 Mostly clear - 18.8 1015.2 0.0
17/10:30am WSW 13 19 - - - - 10 Partly cloudy - 18.7 1015.4 0.0
17/10:00am WSW 14 21 - - - - 10 Partly cloudy - 18.6 1015.9 0.0
17/09:30am WSW 13 20 - - - - 10 Partly cloudy - 18.0 1016.0 0.0
17/09:00am SW 13 20 - - - - 10 Mostly clear - 18.5 1016.0 0.0
17/08:30am SW 12 17 - - - - 10 Partly cloudy - 18.0 1015.7 0.2
17/08:00am SW 13 19 - - - - 10 Mostly clear - 18.1 1015.6 0.2
17/07:30am SW 14 20 - - - - 10 Partly cloudy - 17.8 1015.2 0.2
17/07:00am SW 14 23 - - - - 10 Partly cloudy - 17.7 1014.9 0.2
17/06:30am SW 13 19 - - - - 10 Partly cloudy - 17.6 1014.7 0.2
17/06:00am SW 14 21 - - - - 10 Partly cloudy - 17.4 1014.5 0.2
17/05:30am WSW 14 22 - - - - 10 Cloudy - 17.0 1014.2 0.2
17/05:08am SW 15 26 - - - - 10 Partly cloudy - 17.3 1013.9 0.0
17/05:00am SW 14 20 - - - - 10 Partly cloudy - 17.8 1013.8 0.0
17/04:41am SW 15 27 - - - - 10 Partly cloudy - 17.7 1013.8 0.0
17/04:30am SW 15 23 - - - - 10 Partly cloudy - 17.7 1013.8 0.0
17/04:14am SW 15 26 - - - - 10 Partly cloudy - 17.5 1013.7 0.0
17/04:00am SW 14 20 - - - - 10 Partly cloudy - 16.9 1013.8 0.0
17/03:30am SW 15 24 - - - - 10 Partly cloudy - 17.6 1013.7 0.0
17/03:00am SW 13 18 - - - - 10 Partly cloudy - 17.1 1013.9 0.0
17/02:32am SW 15 25 - - - - 10 Partly cloudy - 18.0 1013.8 0.0
17/02:30am SW 15 23 - - - - 10 Mostly clear - 18.1 1013.8 0.0
17/02:08am WSW 16 27 - - - - 10 Partly cloudy - 18.0 1013.8 0.0
17/02:00am WSW 17 24 - - - - 10 Partly cloudy - 18.1 1013.9 0.0
17/01:50am WSW 19 29 - - - - 10 Partly cloudy - 18.2 1013.9 0.0
17/01:30am WSW 19 26 - - - - 10 Partly cloudy - 18.3 1014.0 0.0
17/01:13am WSW 17 28 - - - - 10 Partly cloudy - 18.2 1014.0 0.0
17/01:00am WSW 17 24 - - - - 10 Partly cloudy - 18.2 1014.0 0.0
17/12:31am SW 15 25 - - - - 10 Partly cloudy - 18.1 1014.1 0.0
17/12:30am SW 16 25 - - - - 10 Partly cloudy - 18.1 1014.1 0.0
17/12:00am SW 16 24 - - - - 10 Partly cloudy - 18.3 1014.2 0.0
 
Date/Time
EST
Wind Sea
Height
m
Swell Vis
km
Cloud Weather Temp
°C
Press
hPa
Rain since
9am
mm
Dir  Spd
kts
Gust
kts
Height
m
Period
s
Dir
16/11:30pm SW 15 23 - - - - 10 Partly cloudy - 18.3 1014.3 0.0
16/11:00pm SW 15 23 - - - - 10 Partly cloudy - 18.3 1014.2 0.0
16/10:30pm SW 15 23 - - - - 10 Partly cloudy - 18.4 1014.2 0.0
16/10:00pm SW 15 22 - - - - 10 Partly cloudy - 18.2 1014.1 0.0
16/09:30pm SW 13 19 - - - - 10 Partly cloudy - 17.9 1014.1 0.0
16/09:00pm SW 14 21 - - - - 10 Partly cloudy - 17.7 1014.2 0.0
16/08:30pm SW 15 22 - - - - 10 Mostly clear - 18.3 1014.0 0.0
16/08:00pm SW 14 21 - - - - 10 Partly cloudy - 18.5 1014.0 0.0
16/07:30pm SW 14 20 - - - - 10 Partly cloudy - 18.4 1013.7 0.0
16/07:17pm SW 15 25 - - - - 10 Partly cloudy - 18.3 1013.7 0.0
16/07:00pm WSW 15 21 - - - - 10 Partly cloudy - 18.0 1013.6 0.0
16/06:30pm SW 14 23 - - - - 10 Partly cloudy - 17.8 1013.4 0.0
16/06:04pm WSW 20 32 - - - - 9 Partly cloudy - 17.9 1013.0 0.0
16/06:00pm WSW 19 26 - - - - 9 Partly cloudy - 18.2 1013.0 0.0
16/05:30pm WSW 20 29 - - - - 10 Cloudy - 18.5 1012.8 0.0
16/05:00pm WSW 19 27 - - - - 10 Partly cloudy - 18.4 1012.6 0.0
16/04:36pm WSW 19 29 - - - - 10 Partly cloudy - 18.4 1012.6 0.0
16/04:30pm WSW 19 28 - - - - 10 Partly cloudy - 18.5 1012.5 0.0
16/04:24pm WSW 17 28 - - - - 10 Partly cloudy - 18.4 1012.5 0.0
16/04:00pm WSW 20 27 - - - - 10 Partly cloudy - 18.4 1012.5 0.0
16/03:34pm WSW 22 32 - - - - 10 Partly cloudy - 18.4 1012.4 0.0
16/03:30pm WSW 22 31 - - - - 10 Partly cloudy - 18.4 1012.3 0.0
16/03:00pm WSW 22 28 - - - - 10 Mostly cloudy - 18.5 1012.1 0.0
16/02:30pm WSW 23 31 - - - - 10 Cloudy - 18.7 1012.2 0.0
16/02:00pm WSW 21 29 - - - - 10 Mostly cloudy - 18.5 1012.0 0.0
16/01:30pm WSW 21 28 - - - - 10 Mostly clear Showers 18.5 1012.1 0.0
16/01:00pm WSW 20 26 - - - - 10 Mostly cloudy - 18.6 1012.2 0.0
16/12:30pm WSW 20 28 - - - - 10 Mostly cloudy - 18.7 1012.2 0.0
16/12:00pm WSW 17 24 - - - - 10 Mostly cloudy - 18.9 1012.5 0.0
16/11:51am WSW 16 26 - - - - 10 Mostly cloudy - 18.7 1012.3 0.0
16/11:30am WSW 18 25 - - - - 10 Cloudy - 18.6 1012.6 0.0
16/11:03am WSW 18 28 - - - - 10 Partly cloudy Showers 17.8 1013.0 0.0
16/11:00am WSW 17 25 - - - - 10 Partly cloudy Showers 18.3 1013.0 0.0
16/10:30am WSW 16 23 - - - - 10 Partly cloudy - 18.8 1013.2 0.0
16/10:00am WSW 17 26 - - - - 10 Partly cloudy - 18.8 1013.3 0.0
16/09:30am WSW 17 24 - - - - 10 Partly cloudy - 18.8 1013.3 0.0
16/09:00am WSW 17 27 - - - - 10 Partly cloudy - 18.7 1013.4 0.0
16/08:30am WSW 17 25 - - - - 10 Mostly clear - 18.5 1013.4 6.0
16/08:12am SW 16 26 - - - - 10 Partly cloudy - 18.2 1013.3 6.0
16/08:00am SW 17 24 - - - - 10 Partly cloudy - 17.9 1013.3 6.0
16/07:50am WSW 18 28 - - - - 10 Partly cloudy - 18.2 1013.2 6.0
16/07:30am WSW 19 27 - - - - 10 Partly cloudy - 18.0 1013.0 6.0
16/07:18am WSW 17 27 - - - - 10 Partly cloudy - 17.9 1013.0 6.0
16/07:00am WSW 17 25 - - - - 10 Partly cloudy - 17.7 1012.9 6.0
16/06:48am SW 15 26 - - - - 10 Partly cloudy - 17.1 1012.9 6.0
16/06:30am SW 12 18 - - - - 10 Partly cloudy - 16.5 1013.2 6.0
16/06:00am SW 17 28 - - - - 10 Partly cloudy - 16.2 1012.9 6.0
16/05:56am SW 15 25 - - - - 10 Partly cloudy - 16.6 1012.9 6.0
16/05:30am SW 12 16 - - - - 10 Mostly cloudy - 16.4 1012.6 6.0
16/05:00am SW 11 16 - - - - 10 Partly cloudy - 15.9 1012.4 6.0
16/04:30am SW 15 21 - - - - 10 Partly cloudy - 15.8 1012.3 6.0
16/04:00am SW 12 23 - - - - 10 Partly cloudy - 16.6 1011.9 6.0
16/03:30am SW 11 15 - - - - 10 Partly cloudy - 15.5 1012.2 6.0
16/03:27am SW 11 19 - - - - 10 Partly cloudy - 15.3 1012.3 6.0
16/03:15am SW 14 23 - - - - 6 Partly cloudy - 15.0 1012.4 6.0
16/03:00am SW 13 21 - - - - 10 Partly cloudy - 16.8 1012.0 6.0
16/02:30am SW 13 20 - - - - 10 Partly cloudy - 16.8 1012.1 6.0
16/02:00am SW 14 21 - - - - 10 Partly cloudy - 16.4 1012.0 6.0
16/01:30am SW 15 22 - - - - 10 Partly cloudy - 16.5 1012.1 6.0
16/01:00am SW 15 25 - - - - 10 Partly cloudy - 16.3 1012.4 6.0
16/12:57am WSW 15 25 - - - - 10 Partly cloudy - 16.4 1012.4 6.0

Other formats

Comma delimited format used in spreadsheet applications
http://www.bom.gov.au/fwo/IDN60701/IDN60701.94995.axf

JavaScript Object Notation format (JSON) in row-major order
http://www.bom.gov.au/fwo/IDN60701/IDN60701.94995.json

Data quality

Most of these data are generated automatically and are frequently updated. Quality checks on data are not normally performed. It is possible for incorrect values to appear. Refer to information at About Latest Weather Observations and please check the disclaimer before using these data.